Weather at Monahullen Airstrip

Public forecast

Using degrees Celsius for public forecast. Weather courtesy of forecast.io.

Closest aviation weather report (METAR) to Monahullen Airstrip

Closest report is Casement Air Base, 33.3 nm (61.7 km) N.

2024/05/20 17:00 (retrieved 52 minutes ago)

EIME 201700Z 08008KT 050V110 9999 FEW030 BKN240 18/12 Q1013

Closest aviation forecast (TAF) to Monahullen Airstrip

Closest forecast is Dublin Airport, 42.1 nm (78.0 km) NNE.

2024/05/20 14:41 Ammendment (retrieved 3 hours ago)

TAF AMD EIDW 201436Z 2014/2112 05009KT 9999 FEW012 BECMG 2014/2016 08010KT PROB40 TEMPO 2014/2020 FEW020CB BECMG 2022/2024 VRB03KT PROB30 TEMPO 2100/2108 4000 -SHRA BR FEW020CB TEMPO 2108/2112 -SHRA FEW020CB PROB30 TEMPO 2108/2112 4000 SHRA BKN010 SCT020CB